WetterOnline ( https://www.wetteronline.de )

Wetter aktuell Küps

Aktuelles Wetter: Coburg (323m)

6-stündlich | Neueste Meldungen
Ortszeit Temperatur Wetter
Mi, 22.09. 14:00 16.3° C wolkig
Mi, 22.09. 8:00 8.5° C bedeckt
Mi, 22.09. 2:00 8.0° C bedeckt
Di, 21.09. 20:00 12.0° C wolkig
Di, 21.09. 14:00 14.0° C bedeckt
Di, 21.09. 8:00 8.5° C bedeckt
Di, 21.09. 2:00 9.1° C bedeckt
Mo, 20.09. 20:00 11.0° C bedeckt
Ortszeit Temperatur Wetter
Mi, 22.09. 18:30 17.4° C leicht bewölkt
Mi, 22.09. 18:20 17.4° C leicht bewölkt
Mi, 22.09. 18:10 17.5° C fast wolkenlos
Mi, 22.09. 18:00 18.1° C fast wolkenlos
Mi, 22.09. 17:50 18.1° C fast wolkenlos
Mi, 22.09. 17:40 17.7° C wolkenlos
Mi, 22.09. 17:30 18.0° C wolkenlos
Mi, 22.09. 17:00 17.9° C fast wolkenlos
Mi, 22.09. 16:30 17.7° C wolkig
Mi, 22.09. 16:00 18.1° C bewölkt
Mi, 22.09. 15:30 18.0° C bewölkt
Ortszeit Relative Feuchte Sichtweite
Mi, 22.09. 14:00 56% 65 km
Mi, 22.09. 8:00 88% 35 km
Mi, 22.09. 2:00 88% 35 km
Di, 21.09. 20:00 69% 65 km
Di, 21.09. 14:00 46% 60 km
Di, 21.09. 8:00 72% 45 km
Di, 21.09. 2:00 77% 45 km
Mo, 20.09. 20:00 70% 45 km
Ortszeit Relative Feuchte Sichtweite
Mi, 22.09. 18:30 60% 40 km
Mi, 22.09. 18:20 60% -
Mi, 22.09. 18:10 58% -
Mi, 22.09. 18:00 56% 55 km
Mi, 22.09. 17:50 56% -
Mi, 22.09. 17:40 55% -
Mi, 22.09. 17:30 55% >70 km
Mi, 22.09. 17:00 55% 45 km
Mi, 22.09. 16:30 53% 50 km
Mi, 22.09. 16:00 50% 55 km
Mi, 22.09. 15:30 50% 60 km
Ortszeit Niederschlagsmenge Niederschlagsart
Mi, 22.09. 14:00 0.0 l/m2 in 6 Std. -
Mi, 22.09. 8:00 0.0 l/m2 in 12 Std. -
Mi, 22.09. 2:00 0.0 l/m2 in 6 Std. -
Di, 21.09. 20:00 0.0 l/m2 in 12 Std. -
Di, 21.09. 14:00 0.0 l/m2 in 6 Std. -
Di, 21.09. 8:00 0.0 l/m2 in 12 Std. -
Di, 21.09. 2:00 0.0 l/m2 in 6 Std. -
Mo, 20.09. 20:00 0.0 l/m2 in 12 Std. -
Ortszeit Niederschlagsmenge Niederschlagsart
Mi, 22.09. 18:30 0.0 l/m2 in 1 Std. -
Mi, 22.09. 18:20 keine Meldung -
Mi, 22.09. 18:10 keine Meldung -
Mi, 22.09. 18:00 0.0 l/m2 in 1 Std. -
Mi, 22.09. 17:50 keine Meldung -
Mi, 22.09. 17:40 keine Meldung -
Mi, 22.09. 17:30 0.0 l/m2 in 1 Std. -
Mi, 22.09. 17:00 0.0 l/m2 in 1 Std. -
Mi, 22.09. 16:30 0.0 l/m2 in 1 Std. -
Mi, 22.09. 16:00 0.0 l/m2 in 1 Std. -
Mi, 22.09. 15:30 0.0 l/m2 in 1 Std. -
Ortszeit Stärke Spitze Richtung
km/h Bft. km/h Grad Sektor
Mi, 22.09. 14:00 7 2 22 10° N
Mi, 22.09. 8:00 9 2 19 290° W
Mi, 22.09. 2:00 4 1 14 270° W
Di, 21.09. 20:00 11 2 18 360° N
Di, 21.09. 14:00 7 2 25 320° NW
Di, 21.09. 8:00 11 2 17 20° N
Di, 21.09. 2:00 4 1 22 210° SW
Mo, 20.09. 20:00 13 3 28 30° NO
Ortszeit Stärke Spitze Richtung
km/h Bft. km/h Grad Sektor
Mi, 22.09. 18:30 7 2 11 240° SW
Mi, 22.09. 18:20 7 2 - 240° SW
Mi, 22.09. 18:10 9 2 - 240° SW
Mi, 22.09. 18:00 9 2 19 240° SW
Mi, 22.09. 17:50 9 2 - 240° SW
Mi, 22.09. 17:40 11 2 - 230° SW
Mi, 22.09. 17:30 11 2 18 250° W
Mi, 22.09. 17:00 11 2 18 260° W
Mi, 22.09. 16:30 11 2 17 260° W
Mi, 22.09. 16:00 7 2 14 130° SO
Mi, 22.09. 15:30 4 1 14 290° W
Ortszeit Untergrenze Bedeckung Gattung
total tief tief mittel hoch
Mi, 22.09. 14:00 1020 m 6/8 4/8 - - -
Mi, 22.09. 8:00 810 m 8/8 8/8 - - -
Mi, 22.09. 2:00 2100 m 8/8 8/8 - - -
Di, 21.09. 20:00 1500 m 8/8 2/8 - - -
Di, 21.09. 14:00 1440 m 8/8 8/8 - - -
Di, 21.09. 8:00 1440 m 8/8 8/8 - - -
Di, 21.09. 2:00 1410 m 8/8 8/8 - - -
Mo, 20.09. 20:00 1230 m 8/8 8/8 - - -
Ortszeit Bedeckungsgrad in Achtel und Wolkenuntergrenze
Mi, 22.09. 18:30 1(1140m) 4(12000m)
Mi, 22.09. 18:20 1(1140m) 4(12000m)
Mi, 22.09. 18:10 1(1170m)
Mi, 22.09. 18:00 1(1170m)
Mi, 22.09. 17:50 1(1170m)
Mi, 22.09. 17:40 keine Wolken
Mi, 22.09. 17:30 keine Wolken
Mi, 22.09. 17:00 1(2700m)
Mi, 22.09. 16:30 5(1260m)
Mi, 22.09. 16:00 7(1260m)
Mi, 22.09. 15:30 7(1230m)
Ortszeit Luftdruck NN (hPa) Tendenz (hPa in 3 Std.)
Mi, 22.09. 14:00 1028 - 1,2
Mi, 22.09. 8:00 1030 + 0,4
Mi, 22.09. 2:00 1030 - 0,5
Di, 21.09. 20:00 1029 + 0,8
Di, 21.09. 14:00 1029 + 0,4
Di, 21.09. 8:00 1028 + 1,4
Di, 21.09. 2:00 1026 + 0,8
Mo, 20.09. 20:00 1023 + 1,6
Ortszeit Luftdruck NN (hPa) Tendenz (hPa in 3 Std.)
Mi, 22.09. 18:30 1026 - 1,1
Mi, 22.09. 18:20 1026 keine Meldung
Mi, 22.09. 18:10 1026 keine Meldung
Mi, 22.09. 18:00 1026 - 1,1
Mi, 22.09. 17:50 1026 keine Meldung
Mi, 22.09. 17:40 1026 keine Meldung
Mi, 22.09. 17:30 1026 - 1,5
Mi, 22.09. 17:00 1026 - 1,5
Mi, 22.09. 16:30 1026 - 1,4
Mi, 22.09. 16:00 1027 - 1,3
Mi, 22.09. 15:30 1027 - 1,4
Ortszeit Schneehöhe (cm)
Mi, 22.09. 14:00 -
Mi, 22.09. 8:00 -
Mi, 22.09. 2:00 -
Di, 21.09. 20:00 -
Di, 21.09. 14:00 -
Di, 21.09. 8:00 -
Di, 21.09. 2:00 -
Mo, 20.09. 20:00 -
Ortszeit Schneehöhe (cm)
Mi, 22.09. 18:30 -
Mi, 22.09. 18:20 -
Mi, 22.09. 18:10 -
Mi, 22.09. 18:00 -
Mi, 22.09. 17:50 -
Mi, 22.09. 17:40 -
Mi, 22.09. 17:30 -
Mi, 22.09. 17:00 -
Mi, 22.09. 16:30 -
Mi, 22.09. 16:00 -
Mi, 22.09. 15:30 -
Link zu dieser Seite / Seite empfehlen

Das Wetter in ...